createdAt,value
2023-05-05T00:01:03.971Z,0.50
2023-05-05T00:02:04.036Z,0.50
2023-05-05T00:03:03.965Z,0.50
2023-05-05T00:04:03.953Z,0.50
2023-05-05T00:05:03.905Z,0.50
2023-05-05T00:06:03.897Z,0.50
2023-05-05T00:07:03.902Z,0.51
2023-05-05T00:08:03.874Z,0.51
2023-05-05T00:09:03.875Z,0.50
2023-05-05T00:10:03.837Z,0.50
2023-05-05T00:11:03.830Z,0.51
2023-05-05T00:12:03.812Z,0.52
2023-05-05T00:13:03.839Z,0.51
2023-05-05T00:14:03.787Z,0.50
2023-05-05T00:15:06.746Z,0.51
2023-05-05T00:16:03.759Z,0.51
2023-05-05T00:17:03.758Z,0.51
2023-05-05T00:18:03.773Z,0.51
2023-05-05T00:19:03.751Z,0.51
2023-05-05T00:20:03.733Z,0.52
2023-05-05T00:21:03.695Z,0.52
2023-05-05T00:22:03.700Z,0.51
2023-05-05T00:23:03.667Z,0.51
2023-05-05T00:24:03.659Z,0.51
2023-05-05T00:25:03.651Z,0.50
2023-05-05T00:26:03.646Z,0.51
2023-05-05T00:27:03.626Z,0.51
2023-05-05T00:28:03.625Z,0.52
2023-05-05T00:29:03.649Z,0.52
2023-05-05T00:30:03.587Z,0.51
2023-05-05T00:31:03.654Z,0.50
2023-05-05T00:32:03.602Z,0.51
2023-05-05T00:33:03.599Z,0.51
2023-05-05T00:34:03.550Z,0.52
2023-05-05T00:35:03.557Z,0.52
2023-05-05T00:36:03.571Z,0.51
2023-05-05T00:37:03.539Z,0.52
2023-05-05T00:38:03.621Z,0.52
2023-05-05T00:39:03.678Z,0.52
2023-05-05T00:40:03.757Z,0.53
2023-05-05T00:41:03.855Z,0.52
2023-05-05T00:42:03.843Z,0.51
2023-05-05T00:43:03.845Z,0.51
2023-05-05T00:44:03.821Z,0.52
2023-05-05T00:45:03.811Z,0.51
2023-05-05T00:46:03.872Z,0.51
2023-05-05T00:47:03.890Z,0.52
2023-05-05T00:48:03.904Z,0.52
2023-05-05T00:49:03.927Z,0.51
2023-05-05T00:50:03.877Z,0.52
2023-05-05T00:51:03.858Z,0.52
2023-05-05T00:52:03.844Z,0.51
2023-05-05T00:53:03.940Z,0.52
2023-05-05T00:54:04.002Z,0.52
2023-05-05T00:55:04.095Z,0.51
2023-05-05T00:56:04.183Z,0.52
2023-05-05T00:57:04.293Z,0.52
2023-05-05T00:58:04.468Z,0.52
2023-05-05T00:59:04.341Z,0.51
2023-05-05T01:00:04.345Z,0.51
2023-05-05T01:01:04.332Z,0.52
2023-05-05T01:02:04.401Z,0.51
2023-05-05T01:03:04.397Z,0.52
2023-05-05T01:04:04.390Z,0.51
2023-05-05T01:05:04.296Z,0.52
2023-05-05T01:06:04.383Z,0.52
2023-05-05T01:07:04.474Z,0.52
2023-05-05T01:08:04.548Z,0.52
2023-05-05T01:09:04.551Z,0.52
2023-05-05T01:10:18.981Z,0.50
2023-05-05T01:11:05.521Z,0.51
2023-05-05T01:12:04.531Z,0.51
2023-05-05T01:13:04.530Z,0.51
2023-05-05T01:14:04.485Z,0.51
2023-05-05T01:15:04.468Z,0.52
2023-05-05T01:16:04.475Z,0.51
2023-05-05T01:17:04.441Z,0.52
2023-05-05T01:18:04.494Z,0.51
2023-05-05T01:19:04.430Z,0.51
2023-05-05T01:20:04.395Z,0.51
2023-05-05T01:21:04.387Z,0.51
2023-05-05T01:22:04.371Z,0.51
2023-05-05T01:23:04.367Z,0.51
2023-05-05T01:24:04.347Z,0.51
2023-05-05T01:25:04.323Z,0.52
2023-05-05T01:26:04.306Z,0.52
2023-05-05T01:27:04.290Z,0.52
2023-05-05T01:28:04.269Z,0.52
2023-05-05T01:29:04.246Z,0.52
2023-05-05T01:30:04.240Z,0.52
2023-05-05T01:31:04.248Z,0.52
2023-05-05T01:32:04.278Z,0.52
2023-05-05T01:33:04.216Z,0.52
2023-05-05T01:34:04.205Z,0.52
2023-05-05T01:35:04.208Z,0.52
2023-05-05T01:36:04.191Z,0.52
2023-05-05T01:37:04.188Z,0.52
2023-05-05T01:38:04.188Z,0.51
2023-05-05T01:39:04.172Z,0.52
2023-05-05T01:40:04.304Z,0.52
2023-05-05T01:41:04.211Z,0.51
2023-05-05T01:42:04.184Z,0.52
2023-05-05T01:43:04.201Z,0.51
2023-05-05T01:44:04.181Z,0.51
2023-05-05T01:45:04.171Z,0.52
2023-05-05T01:46:04.206Z,0.52
2023-05-05T01:47:04.149Z,0.52
2023-05-05T01:48:04.183Z,0.52
2023-05-05T01:49:04.115Z,0.52
2023-05-05T01:50:04.130Z,0.51
2023-05-05T01:51:04.110Z,0.52
2023-05-05T01:52:04.093Z,0.51
2023-05-05T01:53:04.098Z,0.51
2023-05-05T01:54:04.059Z,0.52
2023-05-05T01:55:04.055Z,0.51
2023-05-05T01:56:04.024Z,0.53
2023-05-05T01:57:04.002Z,0.52
2023-05-05T01:58:04.024Z,0.51
2023-05-05T01:59:04.016Z,0.51
2023-05-05T02:00:03.991Z,0.51
2023-05-05T02:01:04.037Z,0.51
2023-05-05T02:02:04.030Z,0.51
2023-05-05T02:03:04.111Z,0.51
2023-05-05T02:04:04.050Z,0.52
2023-05-05T02:05:04.082Z,0.51
2023-05-05T02:06:04.136Z,0.51
2023-05-05T02:07:04.202Z,0.51
2023-05-05T02:08:04.220Z,0.51
2023-05-05T02:09:04.253Z,0.51
2023-05-05T02:10:04.332Z,0.51
2023-05-05T02:11:04.332Z,0.51
2023-05-05T02:12:04.380Z,0.51
2023-05-05T02:13:04.575Z,0.51
2023-05-05T02:14:04.525Z,0.52
2023-05-05T02:15:04.536Z,0.51
2023-05-05T02:16:04.643Z,0.51
2023-05-05T02:17:04.655Z,0.50
2023-05-05T02:18:04.743Z,0.51
2023-05-05T02:19:04.749Z,0.52
2023-05-05T02:20:04.780Z,0.51
2023-05-05T02:21:04.838Z,0.51
2023-05-05T02:22:04.922Z,0.51
2023-05-05T02:23:05.037Z,0.51
2023-05-05T02:24:05.038Z,0.52
2023-05-05T02:25:05.037Z,0.51
2023-05-05T02:26:05.020Z,0.52
2023-05-05T02:27:05.026Z,0.51
2023-05-05T02:28:05.045Z,0.51
2023-05-05T02:29:05.102Z,0.51
2023-05-05T02:30:05.266Z,0.52
2023-05-05T02:31:05.208Z,0.52
2023-05-05T02:32:05.192Z,0.51
2023-05-05T02:33:05.272Z,0.52
2023-05-05T02:34:05.190Z,0.51
2023-05-05T02:35:05.200Z,0.52
2023-05-05T02:36:05.268Z,0.51
2023-05-05T02:37:05.266Z,0.51
2023-05-05T02:38:05.267Z,0.51
2023-05-05T02:39:05.265Z,0.51
2023-05-05T02:40:05.301Z,0.51
2023-05-05T02:41:05.261Z,0.51
2023-05-05T02:42:05.323Z,0.51
2023-05-05T02:43:05.551Z,0.50
2023-05-05T02:44:05.529Z,0.51
2023-05-05T02:45:05.632Z,0.51
2023-05-05T02:46:05.724Z,0.51
2023-05-05T02:47:05.738Z,0.51
2023-05-05T02:48:05.828Z,0.50
2023-05-05T02:49:05.744Z,0.51
2023-05-05T02:50:05.901Z,0.50
2023-05-05T02:51:05.753Z,0.50
2023-05-05T02:52:05.758Z,0.50
2023-05-05T02:53:05.778Z,0.50
2023-05-05T02:54:05.787Z,0.50
2023-05-05T02:55:05.788Z,0.51
2023-05-05T02:56:05.789Z,0.50
2023-05-05T02:57:05.829Z,0.50
2023-05-05T02:58:05.831Z,0.50
2023-05-05T02:59:05.865Z,0.50
2023-05-05T03:00:06.347Z,0.50
2023-05-05T03:01:05.962Z,0.50
2023-05-05T03:02:05.966Z,0.50
2023-05-05T03:03:06.092Z,0.50
2023-05-05T03:04:06.042Z,0.50
2023-05-05T03:05:06.097Z,0.50
2023-05-05T03:06:06.128Z,0.50
2023-05-05T03:07:06.185Z,0.51
2023-05-05T03:08:06.251Z,0.50
2023-05-05T03:09:06.293Z,0.50
2023-05-05T03:10:06.570Z,0.51
2023-05-05T03:11:06.395Z,0.50
2023-05-05T03:12:06.444Z,0.50
2023-05-05T03:13:06.536Z,0.50
2023-05-05T03:14:06.547Z,0.51
2023-05-05T03:15:06.614Z,0.50
2023-05-05T03:16:06.781Z,0.51
2023-05-05T03:17:06.720Z,0.50
2023-05-05T03:18:06.824Z,0.51
2023-05-05T03:19:06.871Z,0.50
2023-05-05T03:20:07.120Z,0.50
2023-05-05T03:21:06.977Z,0.50
2023-05-05T03:22:07.012Z,0.50
2023-05-05T03:23:07.083Z,0.51
2023-05-05T03:24:07.159Z,0.50
2023-05-05T03:25:07.163Z,0.50
2023-05-05T03:26:07.170Z,0.50
2023-05-05T03:27:07.193Z,0.50
2023-05-05T03:28:07.241Z,0.51
2023-05-05T03:29:07.266Z,0.50
2023-05-05T03:30:07.489Z,0.51
2023-05-05T03:31:07.280Z,0.50
2023-05-05T03:32:07.388Z,0.50
2023-05-05T03:33:07.322Z,0.49
2023-05-05T03:34:07.227Z,0.47
2023-05-05T03:35:07.206Z,0.46
2023-05-05T03:36:07.209Z,0.45
2023-05-05T03:37:07.220Z,0.51
2023-05-05T03:38:07.200Z,0.50
2023-05-05T03:39:07.175Z,0.51
2023-05-05T03:40:07.417Z,0.50
2023-05-05T03:41:07.155Z,0.51
2023-05-05T03:42:07.163Z,0.50
2023-05-05T03:43:07.164Z,0.50
2023-05-05T03:44:07.139Z,0.51
2023-05-05T03:45:07.143Z,0.51
2023-05-05T03:46:07.160Z,0.51
2023-05-05T03:47:07.128Z,0.51
2023-05-05T03:48:07.200Z,0.51
2023-05-05T03:49:07.132Z,0.51
2023-05-05T03:50:07.279Z,0.52
2023-05-05T03:51:07.116Z,0.51
2023-05-05T03:52:07.139Z,0.50
2023-05-05T03:53:07.127Z,0.51
2023-05-05T03:54:07.120Z,0.50
2023-05-05T03:55:07.136Z,0.51
2023-05-05T03:56:07.230Z,0.51
2023-05-05T03:57:07.111Z,0.51
2023-05-05T03:58:07.111Z,0.51
2023-05-05T03:59:07.110Z,0.50
2023-05-05T04:00:07.260Z,0.52
2023-05-05T04:01:07.104Z,0.51
2023-05-05T04:02:07.132Z,0.53
2023-05-05T04:03:07.385Z,0.52
2023-05-05T04:04:07.134Z,0.52
2023-05-05T04:05:07.097Z,0.54
2023-05-05T04:06:07.088Z,0.53
2023-05-05T04:07:07.100Z,0.54
2023-05-05T04:08:07.105Z,0.55
2023-05-05T04:09:07.085Z,0.54
2023-05-05T04:10:07.353Z,0.54
2023-05-05T04:11:07.086Z,0.57
2023-05-05T04:12:07.080Z,0.56
2023-05-05T04:13:07.112Z,0.56
2023-05-05T04:14:07.083Z,0.56
2023-05-05T04:15:07.120Z,0.55
2023-05-05T04:16:07.162Z,0.54
2023-05-05T04:17:07.171Z,0.57
2023-05-05T04:18:07.236Z,0.56
2023-05-05T04:19:07.212Z,0.55
2023-05-05T04:20:07.450Z,0.55
2023-05-05T04:21:07.272Z,0.58
2023-05-05T04:22:07.296Z,0.56
2023-05-05T04:23:07.337Z,0.56
2023-05-05T04:24:07.331Z,0.55
2023-05-05T04:25:07.381Z,0.55
2023-05-05T04:26:07.394Z,0.54
2023-05-05T04:27:07.442Z,0.55
2023-05-05T04:28:07.471Z,0.57
2023-05-05T04:29:07.489Z,0.55
2023-05-05T04:30:07.724Z,0.55
2023-05-05T04:31:07.568Z,0.53
2023-05-05T04:32:07.619Z,0.54
2023-05-05T04:33:07.605Z,0.54
2023-05-05T04:34:07.637Z,0.52
2023-05-05T04:35:07.654Z,0.54
2023-05-05T04:36:07.674Z,0.53
2023-05-05T04:37:07.703Z,0.55
2023-05-05T04:38:07.834Z,0.52
2023-05-05T04:39:07.863Z,0.54
2023-05-05T04:40:07.975Z,0.53
2023-05-05T04:41:07.868Z,0.51
2023-05-05T04:42:07.858Z,0.53
2023-05-05T04:43:07.910Z,0.52
2023-05-05T04:44:07.947Z,0.54
2023-05-05T04:45:07.955Z,0.55
2023-05-05T04:46:08.004Z,0.51
2023-05-05T04:47:08.028Z,0.52
2023-05-05T04:48:08.158Z,0.56
2023-05-05T04:49:08.104Z,0.56
2023-05-05T04:50:08.329Z,0.55
2023-05-05T04:51:08.175Z,0.55
2023-05-05T04:52:08.196Z,0.54
2023-05-05T04:53:08.246Z,0.54
2023-05-05T04:54:08.269Z,0.54
2023-05-05T04:55:08.306Z,0.55
2023-05-05T04:56:08.364Z,0.56
2023-05-05T04:57:08.378Z,0.55
2023-05-05T04:58:08.431Z,0.54
2023-05-05T04:59:08.450Z,0.53
2023-05-05T05:00:08.662Z,0.53
2023-05-05T05:01:08.506Z,0.58
2023-05-05T05:02:08.557Z,0.61
2023-05-05T05:03:08.662Z,0.69
2023-05-05T05:04:08.642Z,0.84
2023-05-05T05:05:08.666Z,0.95
2023-05-05T05:06:08.688Z,1.09
2023-05-05T05:07:08.707Z,1.14
2023-05-05T05:08:08.711Z,1.16
2023-05-05T05:09:08.776Z,1.24
2023-05-05T05:10:08.932Z,1.30
2023-05-05T05:11:08.761Z,1.44
2023-05-05T05:12:08.765Z,1.46
2023-05-05T05:13:10.090Z,1.53
2023-05-05T05:14:08.791Z,1.57
2023-05-05T05:15:08.808Z,1.66
2023-05-05T05:16:08.846Z,1.69
2023-05-05T05:17:08.845Z,1.80
2023-05-05T05:18:08.861Z,1.86
2023-05-05T05:19:08.858Z,1.91
2023-05-05T05:20:09.199Z,2.08
2023-05-05T05:21:08.874Z,2.10
2023-05-05T05:22:08.865Z,2.10
2023-05-05T05:23:08.883Z,2.12
2023-05-05T05:24:08.853Z,2.17
2023-05-05T05:25:08.854Z,2.25
2023-05-05T05:26:08.841Z,2.46
2023-05-05T05:27:10.127Z,2.46
2023-05-05T05:28:10.612Z,2.61
2023-05-05T05:29:08.854Z,2.62
2023-05-05T05:30:09.007Z,2.65
2023-05-05T05:31:08.828Z,2.65
2023-05-05T05:32:08.928Z,2.68
2023-05-05T05:33:08.887Z,2.80
2023-05-05T05:34:10.273Z,2.72
2023-05-05T05:35:08.910Z,2.73
2023-05-05T05:36:08.879Z,2.70
2023-05-05T05:37:08.873Z,2.59
2023-05-05T05:38:08.886Z,2.58
2023-05-05T05:39:08.877Z,2.23
2023-05-05T05:40:09.025Z,2.08
2023-05-05T05:41:08.890Z,2.67
2023-05-05T05:42:08.924Z,2.62
2023-05-05T05:43:08.947Z,2.58
2023-05-05T05:44:08.975Z,2.36
2023-05-05T05:45:09.001Z,2.11
2023-05-05T05:46:09.473Z,2.02
2023-05-05T05:47:09.153Z,1.89
2023-05-05T05:48:09.244Z,1.70
2023-05-05T05:49:09.083Z,1.70
2023-05-05T05:50:09.309Z,1.51
2023-05-05T05:51:09.058Z,1.39
2023-05-05T05:52:09.144Z,1.19
2023-05-05T05:53:09.057Z,1.03
2023-05-05T05:54:09.075Z,0.86
2023-05-05T05:55:09.088Z,0.74
2023-05-05T05:56:09.108Z,0.63
2023-05-05T05:57:09.094Z,0.50
2023-05-05T05:58:09.074Z,0.50
2023-05-05T05:59:09.113Z,0.50
2023-05-05T06:00:09.398Z,0.50
2023-05-05T06:01:09.186Z,0.50
2023-05-05T06:02:09.195Z,0.49
2023-05-05T06:03:09.302Z,0.47
2023-05-05T06:04:09.292Z,0.45
2023-05-05T06:05:09.204Z,0.46
2023-05-05T06:06:09.201Z,0.47
2023-05-05T06:07:09.200Z,0.53
2023-05-05T06:08:09.213Z,0.53
2023-05-05T06:09:09.268Z,0.50
2023-05-05T06:10:25.809Z,0.52
2023-05-05T06:11:10.230Z,0.52
2023-05-05T06:12:09.272Z,0.52
2023-05-05T06:13:09.351Z,0.52
2023-05-05T06:14:09.242Z,0.50
2023-05-05T06:15:09.234Z,0.49
2023-05-05T06:16:09.407Z,0.53
2023-05-05T06:17:09.245Z,0.58
2023-05-05T06:18:09.251Z,0.60
2023-05-05T06:19:09.327Z,0.64
2023-05-05T06:20:09.597Z,0.68
2023-05-05T06:21:09.415Z,0.68
2023-05-05T06:22:09.473Z,0.68
2023-05-05T06:23:09.411Z,0.72
2023-05-05T06:24:09.444Z,0.73
2023-05-05T06:25:09.467Z,0.76
2023-05-05T06:26:09.452Z,0.70
2023-05-05T06:27:09.460Z,0.73
2023-05-05T06:28:09.444Z,0.72
2023-05-05T06:29:11.710Z,0.70
2023-05-05T06:30:09.829Z,0.77
2023-05-05T06:31:09.488Z,0.79
2023-05-05T06:32:09.538Z,0.80
2023-05-05T06:33:09.499Z,0.85
2023-05-05T06:34:09.462Z,0.79
2023-05-05T06:35:09.475Z,0.76
2023-05-05T06:36:09.587Z,0.73
2023-05-05T06:37:09.501Z,0.79
2023-05-05T06:38:09.507Z,0.78
2023-05-05T06:39:09.495Z,0.75
2023-05-05T06:40:09.627Z,0.76
2023-05-05T06:41:09.509Z,0.72
2023-05-05T06:42:09.530Z,0.72
2023-05-05T06:43:09.526Z,0.73
2023-05-05T06:44:09.524Z,0.75
2023-05-05T06:45:09.539Z,0.79
2023-05-05T06:46:09.513Z,0.85
2023-05-05T06:47:09.526Z,0.87
2023-05-05T06:48:09.651Z,0.87
2023-05-05T06:49:09.524Z,0.87
2023-05-05T06:50:09.852Z,0.85
2023-05-05T06:51:09.550Z,0.80
2023-05-05T06:52:09.578Z,0.76
2023-05-05T06:53:09.628Z,0.65
2023-05-05T06:54:09.716Z,0.61
2023-05-05T06:55:09.835Z,0.58
2023-05-05T06:56:09.784Z,0.57
2023-05-05T06:57:09.858Z,0.62
2023-05-05T06:58:09.881Z,0.59
2023-05-05T06:59:09.946Z,0.55
2023-05-05T07:00:10.074Z,0.50
2023-05-05T07:01:10.101Z,0.50
2023-05-05T07:02:10.108Z,0.50
2023-05-05T07:03:10.141Z,0.50
2023-05-05T07:04:10.483Z,0.50
2023-05-05T07:05:10.148Z,0.45
2023-05-05T07:06:10.123Z,0.41
2023-05-05T07:07:10.104Z,0.40
2023-05-05T07:08:10.115Z,0.50
2023-05-05T07:09:10.116Z,0.56
2023-05-05T07:10:10.214Z,0.58
2023-05-05T07:11:10.096Z,0.57
2023-05-05T07:12:10.167Z,0.56
2023-05-05T07:13:10.250Z,0.60
2023-05-05T07:14:10.256Z,0.54
2023-05-05T07:15:23.279Z,0.52
2023-05-05T07:16:11.294Z,0.51
2023-05-05T07:17:10.305Z,0.52
2023-05-05T07:18:10.362Z,0.52
2023-05-05T07:19:10.304Z,0.53
2023-05-05T07:20:10.706Z,0.52
2023-05-05T07:21:10.300Z,0.54
2023-05-05T07:22:10.264Z,0.55
2023-05-05T07:23:10.265Z,0.53
2023-05-05T07:24:10.273Z,0.53
2023-05-05T07:25:10.263Z,0.55
2023-05-05T07:26:10.246Z,0.56
2023-05-05T07:27:10.280Z,0.57
2023-05-05T07:28:10.312Z,0.53
2023-05-05T07:29:10.356Z,0.56
2023-05-05T07:30:14.004Z,0.59
2023-05-05T07:31:11.404Z,0.59
2023-05-05T07:32:10.511Z,0.59
2023-05-05T07:33:10.460Z,0.60
2023-05-05T07:34:10.405Z,0.60
2023-05-05T07:35:10.408Z,0.62
2023-05-05T07:36:10.534Z,0.62
2023-05-05T07:37:10.404Z,0.63
2023-05-05T07:38:10.966Z,0.60
2023-05-05T07:39:10.424Z,0.63
2023-05-05T07:40:10.607Z,0.70
2023-05-05T07:41:10.399Z,0.74
2023-05-05T07:42:10.385Z,0.83
2023-05-05T07:43:10.369Z,0.83
2023-05-05T07:44:10.375Z,0.77
2023-05-05T07:45:10.364Z,0.68
2023-05-05T07:46:10.378Z,0.68
2023-05-05T07:47:10.348Z,0.65
2023-05-05T07:48:10.352Z,0.60
2023-05-05T07:49:10.365Z,0.56
2023-05-05T07:50:10.613Z,0.55
2023-05-05T07:51:10.290Z,0.53
2023-05-05T07:52:10.351Z,0.50
2023-05-05T07:53:14.782Z,0.50
2023-05-05T07:54:10.274Z,0.50
2023-05-05T07:55:10.289Z,0.50
2023-05-05T07:56:10.247Z,0.50
2023-05-05T07:57:10.265Z,0.48
2023-05-05T07:58:10.241Z,0.44
2023-05-05T07:59:10.236Z,0.51
2023-05-05T08:00:10.407Z,0.51
2023-05-05T08:01:10.215Z,0.51
2023-05-05T08:02:10.221Z,0.54
2023-05-05T08:03:11.928Z,0.56
2023-05-05T08:04:10.304Z,0.60
2023-05-05T08:05:10.312Z,0.67
2023-05-05T08:06:10.206Z,0.68
2023-05-05T08:07:10.216Z,0.72
2023-05-05T08:08:10.318Z,0.80
2023-05-05T08:09:10.398Z,0.77
2023-05-05T08:10:10.397Z,0.69
2023-05-05T08:11:10.447Z,0.70
2023-05-05T08:12:10.504Z,0.58
2023-05-05T08:13:10.611Z,0.50
2023-05-05T08:14:10.636Z,0.49
2023-05-05T08:15:10.885Z,0.50
2023-05-05T08:16:10.699Z,0.50
2023-05-05T08:17:11.150Z,0.48
2023-05-05T08:18:10.667Z,0.50
2023-05-05T08:19:25.041Z,0.50
2023-05-05T08:20:11.677Z,0.50
2023-05-05T08:21:10.654Z,0.50
2023-05-05T08:22:10.650Z,0.50
2023-05-05T08:23:10.624Z,0.51
2023-05-05T08:24:10.704Z,0.56
2023-05-05T08:25:10.603Z,0.66
2023-05-05T08:26:10.612Z,0.91
2023-05-05T08:27:10.594Z,1.01
2023-05-05T08:28:10.585Z,1.06
2023-05-05T08:29:10.666Z,1.07
2023-05-05T08:30:10.609Z,1.16
2023-05-05T08:31:10.705Z,1.17
2023-05-05T08:32:10.743Z,1.10
2023-05-05T08:33:10.811Z,1.04
2023-05-05T08:34:10.862Z,0.86
2023-05-05T08:35:11.279Z,0.59
2023-05-05T08:36:10.918Z,0.42
2023-05-05T08:37:10.992Z,0.42
2023-05-05T08:38:11.045Z,0.43
2023-05-05T08:39:11.146Z,0.43
2023-05-05T08:40:11.265Z,0.50
2023-05-05T08:41:11.216Z,0.50
2023-05-05T08:42:11.245Z,0.46
2023-05-05T08:43:11.211Z,0.42
2023-05-05T08:44:11.242Z,0.34
2023-05-05T08:45:11.620Z,0.34
2023-05-05T08:46:11.201Z,0.34
2023-05-05T08:47:11.247Z,0.34
2023-05-05T08:48:11.242Z,0.34
2023-05-05T08:49:11.171Z,0.34
2023-05-05T08:50:11.167Z,0.34
2023-05-05T08:51:11.124Z,0.34
2023-05-05T08:52:11.178Z,0.34
2023-05-05T08:53:11.126Z,0.34
2023-05-05T08:54:11.130Z,0.44
2023-05-05T08:55:11.106Z,0.44
2023-05-05T08:56:11.273Z,0.45
2023-05-05T08:57:11.113Z,0.46
2023-05-05T08:58:11.118Z,0.52
2023-05-05T08:59:11.130Z,0.64
2023-05-05T09:00:11.127Z,0.78
2023-05-05T09:01:11.162Z,0.82
2023-05-05T09:02:11.128Z,0.90
2023-05-05T09:03:11.221Z,1.06
2023-05-05T09:04:11.200Z,1.21
2023-05-05T09:05:11.347Z,1.36
2023-05-05T09:06:11.299Z,1.35
2023-05-05T09:07:11.342Z,1.74
2023-05-05T09:08:11.391Z,1.79
2023-05-05T09:09:11.503Z,2.11
2023-05-05T09:10:11.501Z,2.21
2023-05-05T09:11:11.531Z,2.47
2023-05-05T09:12:11.519Z,2.56
2023-05-05T09:13:11.630Z,2.49
2023-05-05T09:14:11.626Z,2.59
2023-05-05T09:15:11.670Z,2.01
2023-05-05T09:16:11.712Z,1.86
2023-05-05T09:17:11.702Z,1.84
2023-05-05T09:18:11.738Z,1.79
2023-05-05T09:19:11.771Z,1.82
2023-05-05T09:20:11.832Z,1.84
2023-05-05T09:21:11.813Z,1.85
2023-05-05T09:22:11.821Z,1.89
2023-05-05T09:23:11.808Z,1.90
2023-05-05T09:24:11.799Z,1.75
2023-05-05T09:25:11.795Z,1.88
2023-05-05T09:26:11.781Z,1.67
2023-05-05T09:27:11.752Z,1.69
2023-05-05T09:28:11.834Z,1.78
2023-05-05T09:29:11.739Z,2.03
2023-05-05T09:30:11.739Z,2.06
2023-05-05T09:31:11.816Z,1.99
2023-05-05T09:32:11.696Z,2.33
2023-05-05T09:33:11.762Z,2.72
2023-05-05T09:34:11.723Z,2.96
2023-05-05T09:35:11.688Z,2.83
2023-05-05T09:36:11.682Z,2.96
2023-05-05T09:37:11.687Z,2.97
2023-05-05T09:38:11.679Z,2.93
2023-05-05T09:39:11.662Z,2.97
2023-05-05T09:40:11.639Z,2.98
2023-05-05T09:41:11.634Z,2.98
2023-05-05T09:42:11.625Z,2.96
2023-05-05T09:43:11.603Z,2.68
2023-05-05T09:44:11.623Z,2.22
2023-05-05T09:45:11.618Z,2.26
2023-05-05T09:46:11.583Z,1.73
2023-05-05T09:47:25.916Z,1.81
2023-05-05T09:48:12.608Z,1.82
2023-05-05T09:49:11.519Z,1.84
2023-05-05T09:50:11.525Z,1.94
2023-05-05T09:51:11.541Z,2.16
2023-05-05T09:52:11.563Z,2.58
2023-05-05T09:53:11.479Z,2.86
2023-05-05T09:54:11.491Z,3.14
2023-05-05T09:55:11.485Z,3.15
2023-05-05T09:56:11.427Z,3.17
2023-05-05T09:57:11.552Z,3.23
2023-05-05T09:58:11.507Z,3.41
2023-05-05T09:59:11.409Z,3.19
2023-05-05T10:00:11.659Z,3.42
2023-05-05T10:01:11.389Z,3.61
2023-05-05T10:02:11.433Z,3.76
2023-05-05T10:03:11.401Z,4.14
2023-05-05T10:04:11.360Z,4.69
2023-05-05T10:05:11.566Z,5.10
2023-05-05T10:06:11.284Z,6.24
2023-05-05T10:07:11.300Z,7.20
2023-05-05T10:08:11.301Z,7.90
2023-05-05T10:09:11.251Z,7.95
2023-05-05T10:10:11.541Z,8.32
2023-05-05T10:11:11.269Z,9.45
2023-05-05T10:12:11.215Z,12.29
2023-05-05T10:13:11.451Z,18.97
2023-05-05T10:14:11.188Z,21.75
2023-05-05T10:15:11.208Z,24.67
2023-05-05T10:16:11.288Z,28.32
2023-05-05T10:17:11.150Z,32.38
2023-05-05T10:18:11.216Z,34.94
2023-05-05T10:19:11.146Z,35.09
2023-05-05T10:20:11.149Z,36.14
2023-05-05T10:21:11.188Z,38.71
2023-05-05T10:22:11.109Z,44.49
2023-05-05T10:23:11.085Z,60.83
2023-05-05T10:24:11.099Z,65.45
2023-05-05T10:25:11.072Z,73.04
2023-05-05T10:26:11.055Z,79.67
2023-05-05T10:27:12.624Z,83.46
2023-05-05T10:28:11.018Z,93.94
2023-05-05T10:29:11.005Z,102.13
2023-05-05T10:30:11.067Z,112.54
2023-05-05T10:31:24.517Z,116.92
2023-05-05T10:32:33.487Z,117.23
2023-05-05T10:33:30.418Z,117.41
2023-05-05T10:34:12.086Z,117.67
2023-05-05T10:35:10.868Z,122.11
2023-05-05T10:36:10.832Z,121.22
2023-05-05T10:37:10.833Z,111.51
2023-05-05T10:38:10.785Z,49.05
2023-05-05T10:39:10.813Z,17.85
2023-05-05T10:40:11.001Z,8.21
2023-05-05T10:41:10.730Z,5.30
2023-05-05T10:42:10.869Z,4.41
2023-05-05T10:43:10.695Z,3.94
2023-05-05T10:44:10.657Z,3.53
2023-05-05T10:45:10.731Z,3.50
2023-05-05T10:46:10.632Z,3.42
2023-05-05T10:47:10.566Z,3.27
2023-05-05T10:48:10.829Z,3.44
2023-05-05T10:49:12.481Z,3.54
2023-05-05T10:50:10.672Z,2.89
2023-05-05T10:51:10.493Z,2.86
2023-05-05T10:52:10.425Z,2.78
2023-05-05T10:53:10.427Z,1.90
2023-05-05T10:54:10.484Z,1.29
2023-05-05T10:55:10.376Z,0.94
2023-05-05T10:56:10.339Z,0.83
2023-05-05T10:57:10.482Z,0.79
2023-05-05T10:58:10.288Z,0.73
2023-05-05T10:59:10.261Z,0.87
2023-05-05T11:00:10.358Z,0.94
2023-05-05T11:01:10.371Z,1.02
2023-05-05T11:02:10.184Z,1.02
2023-05-05T11:03:10.248Z,0.99
2023-05-05T11:04:10.296Z,0.97
2023-05-05T11:05:10.141Z,0.99
2023-05-05T11:06:10.099Z,1.06
2023-05-05T11:07:13.806Z,1.32
2023-05-05T11:08:10.037Z,1.32
2023-05-05T11:09:10.016Z,1.32
2023-05-05T11:10:10.248Z,1.12
2023-05-05T11:11:09.938Z,0.96
2023-05-05T11:12:09.913Z,0.91
2023-05-05T11:13:09.920Z,0.85
2023-05-05T11:14:09.863Z,0.90
2023-05-05T11:15:09.848Z,0.96
2023-05-05T11:16:09.811Z,0.96
2023-05-05T11:17:09.758Z,0.98
2023-05-05T11:18:09.786Z,1.03
2023-05-05T11:19:09.709Z,0.90
2023-05-05T11:20:09.996Z,0.83
2023-05-05T11:21:09.627Z,0.84
2023-05-05T11:22:09.604Z,0.87
2023-05-05T11:23:09.563Z,1.04
2023-05-05T11:24:09.529Z,1.29
2023-05-05T11:25:09.502Z,1.41
2023-05-05T11:26:09.548Z,1.30
2023-05-05T11:27:09.490Z,1.36
2023-05-05T11:28:09.398Z,1.71
2023-05-05T11:29:09.377Z,1.95
2023-05-05T11:30:09.577Z,2.21
2023-05-05T11:31:09.324Z,2.12
2023-05-05T11:32:09.287Z,1.95
2023-05-05T11:33:09.248Z,2.04
2023-05-05T11:34:09.229Z,2.06
2023-05-05T11:35:09.238Z,2.01
2023-05-05T11:36:09.254Z,1.91
2023-05-05T11:37:09.176Z,1.77
2023-05-05T11:38:09.154Z,1.84
2023-05-05T11:39:09.154Z,2.03
2023-05-05T11:40:09.320Z,2.17
2023-05-05T11:41:09.125Z,2.25
2023-05-05T11:42:10.644Z,2.27
2023-05-05T11:43:09.109Z,2.53
2023-05-05T11:44:09.098Z,2.80
2023-05-05T11:45:09.113Z,3.01
2023-05-05T11:46:09.090Z,3.03
2023-05-05T11:47:09.049Z,3.34
2023-05-05T11:48:09.092Z,3.65
2023-05-05T11:49:09.037Z,4.06
2023-05-05T11:50:09.182Z,4.44
2023-05-05T11:51:09.028Z,4.61
2023-05-05T11:52:09.065Z,4.67
2023-05-05T11:53:09.010Z,4.82
2023-05-05T11:54:09.029Z,4.84
2023-05-05T11:55:09.076Z,4.77
2023-05-05T11:56:08.996Z,4.76
2023-05-05T11:57:09.027Z,4.77
2023-05-05T11:58:08.972Z,4.85
2023-05-05T11:59:08.979Z,5.15
2023-05-05T12:00:09.135Z,5.59
2023-05-05T12:01:09.000Z,6.08
2023-05-05T12:02:09.026Z,6.60
2023-05-05T12:03:09.179Z,7.16
2023-05-05T12:04:09.054Z,7.31
2023-05-05T12:05:09.070Z,7.73
2023-05-05T12:06:08.992Z,8.26
2023-05-05T12:07:08.973Z,8.80
2023-05-05T12:08:09.117Z,9.57
2023-05-05T12:09:08.978Z,10.10
2023-05-05T12:10:09.198Z,10.84
2023-05-05T12:11:08.909Z,11.17
2023-05-05T12:12:08.822Z,11.84
2023-05-05T12:13:08.842Z,12.50
2023-05-05T12:14:09.018Z,12.84
2023-05-05T12:15:08.817Z,12.85
2023-05-05T12:16:08.784Z,13.61
2023-05-05T12:17:08.784Z,13.72
2023-05-05T12:18:08.800Z,12.74
2023-05-05T12:19:08.715Z,11.14
2023-05-05T12:20:09.074Z,10.79
2023-05-05T12:21:08.676Z,11.66
2023-05-05T12:22:08.644Z,11.44
2023-05-05T12:23:08.639Z,11.15
2023-05-05T12:24:08.673Z,10.60
2023-05-05T12:25:08.598Z,10.41
2023-05-05T12:26:08.555Z,10.50
2023-05-05T12:27:08.539Z,9.88
2023-05-05T12:28:08.543Z,9.77
2023-05-05T12:29:08.511Z,9.89
2023-05-05T12:30:08.672Z,9.94
2023-05-05T12:31:08.527Z,9.81
2023-05-05T12:32:08.492Z,9.42
2023-05-05T12:33:08.463Z,9.61
2023-05-05T12:34:08.404Z,9.67
2023-05-05T12:35:08.376Z,9.83
2023-05-05T12:36:08.364Z,9.76
2023-05-05T12:37:08.359Z,10.03
2023-05-05T12:38:08.327Z,10.58
2023-05-05T12:39:08.341Z,10.80
2023-05-05T12:40:08.412Z,10.81
2023-05-05T12:41:08.249Z,11.00
2023-05-05T12:42:08.202Z,11.32
2023-05-05T12:43:08.190Z,11.98
2023-05-05T12:44:08.163Z,12.97
2023-05-05T12:45:08.190Z,13.80
2023-05-05T12:46:08.200Z,14.66
2023-05-05T12:47:08.105Z,14.97
2023-05-05T12:48:08.024Z,14.61
2023-05-05T12:49:07.990Z,14.26
2023-05-05T12:50:08.150Z,14.14
2023-05-05T12:51:08.021Z,14.32
2023-05-05T12:52:07.912Z,14.00
2023-05-05T12:53:07.916Z,12.79
2023-05-05T12:54:07.837Z,10.75
2023-05-05T12:55:08.023Z,9.79
2023-05-05T12:56:07.869Z,8.61
2023-05-05T12:57:07.878Z,8.51
2023-05-05T12:58:07.847Z,7.90
2023-05-05T12:59:07.862Z,7.01
2023-05-05T13:00:08.051Z,6.49
2023-05-05T13:01:07.868Z,3.59
2023-05-05T13:02:07.888Z,3.69
2023-05-05T13:03:08.003Z,4.07
2023-05-05T13:04:07.800Z,3.26
2023-05-05T13:05:22.531Z,3.07
2023-05-05T13:06:07.725Z,2.90
2023-05-05T13:07:07.703Z,2.86
2023-05-05T13:08:07.711Z,2.78
2023-05-05T13:09:07.705Z,2.76
2023-05-05T13:10:07.728Z,2.92
2023-05-05T13:11:07.553Z,2.67
2023-05-05T13:12:07.705Z,2.57
2023-05-05T13:13:07.574Z,2.32
2023-05-05T13:14:07.484Z,2.19
2023-05-05T13:15:07.800Z,2.03
2023-05-05T13:16:07.486Z,1.95
2023-05-05T13:17:07.412Z,1.79